sensor_id;sensor_type;location;lat;lon;timestamp;pressure;altitude;pressure_sealevel;temperature;humidity
9855;BME280;4966;48.112;9.282;2022-08-19T00:01:52;94327.22;;;18.82;100.00
9855;BME280;4966;48.112;9.282;2022-08-19T00:04:20;94327.63;;;18.80;100.00
9855;BME280;4966;48.112;9.282;2022-08-19T00:06:46;94321.31;;;18.87;100.00
9855;BME280;4966;48.112;9.282;2022-08-19T00:09:15;94322.03;;;18.98;100.00
9855;BME280;4966;48.112;9.282;2022-08-19T00:11:42;94312.56;;;19.03;100.00
9855;BME280;4966;48.112;9.282;2022-08-19T00:14:11;94314.47;;;19.20;100.00
9855;BME280;4966;48.112;9.282;2022-08-19T00:16:39;94318.41;;;19.23;100.00
9855;BME280;4966;48.112;9.282;2022-08-19T00:19:05;94324.31;;;19.21;100.00
9855;BME280;4966;48.112;9.282;2022-08-19T00:21:31;94332.75;;;18.78;100.00
9855;BME280;4966;48.112;9.282;2022-08-19T00:23:56;94340.66;;;18.58;100.00
9855;BME280;4966;48.112;9.282;2022-08-19T00:26:24;94355.22;;;18.52;100.00
9855;BME280;4966;48.112;9.282;2022-08-19T00:28:49;94355.22;;;18.48;100.00
9855;BME280;4966;48.112;9.282;2022-08-19T00:31:16;94347.69;;;18.74;100.00
9855;BME280;4966;48.112;9.282;2022-08-19T00:33:41;94352.81;;;18.89;100.00
9855;BME280;4966;48.112;9.282;2022-08-19T00:36:09;94353.56;;;18.94;100.00
9855;BME280;4966;48.112;9.282;2022-08-19T00:38:36;94339.72;;;19.11;100.00
9855;BME280;4966;48.112;9.282;2022-08-19T00:41:02;94338.94;;;19.11;100.00
9855;BME280;4966;48.112;9.282;2022-08-19T00:43:28;94332.97;;;19.23;100.00
9855;BME280;4966;48.112;9.282;2022-08-19T00:45:54;94334.09;;;19.29;100.00
9855;BME280;4966;48.112;9.282;2022-08-19T00:48:20;94330.63;;;19.15;100.00
9855;BME280;4966;48.112;9.282;2022-08-19T00:50:47;94329.47;;;19.16;100.00
9855;BME280;4966;48.112;9.282;2022-08-19T00:53:16;94321.19;;;19.16;100.00
9855;BME280;4966;48.112;9.282;2022-08-19T00:55:48;94321.97;;;19.16;100.00
9855;BME280;4966;48.112;9.282;2022-08-19T00:58:17;94318.81;;;19.14;100.00
9855;BME280;4966;48.112;9.282;2022-08-19T01:00:44;94335.72;;;19.23;100.00
9855;BME280;4966;48.112;9.282;2022-08-19T01:03:14;94325.44;;;19.31;100.00
9855;BME280;4966;48.112;9.282;2022-08-19T01:05:42;94327.75;;;19.40;100.00
9855;BME280;4966;48.112;9.282;2022-08-19T01:08:08;94332.50;;;19.32;100.00
9855;BME280;4966;48.112;9.282;2022-08-19T01:10:41;94327.03;;;19.25;100.00
9855;BME280;4966;48.112;9.282;2022-08-19T01:13:07;94328.22;;;19.24;100.00
9855;BME280;4966;48.112;9.282;2022-08-19T01:15:38;94325.81;;;19.29;100.00
9855;BME280;4966;48.112;9.282;2022-08-19T01:18:07;94331.41;;;19.19;100.00
9855;BME280;4966;48.112;9.282;2022-08-19T01:20:34;94330.25;;;19.16;100.00
9855;BME280;4966;48.112;9.282;2022-08-19T01:23:00;94331.84;;;19.13;100.00
9855;BME280;4966;48.112;9.282;2022-08-19T01:25:29;94337.72;;;19.16;100.00
9855;BME280;4966;48.112;9.282;2022-08-19T01:27:56;94324.72;;;19.12;100.00
9855;BME280;4966;48.112;9.282;2022-08-19T01:30:29;94331.06;;;19.13;100.00
9855;BME280;4966;48.112;9.282;2022-08-19T01:32:56;94334.91;;;19.26;100.00
9855;BME280;4966;48.112;9.282;2022-08-19T01:35:23;94331.09;;;19.06;100.00
9855;BME280;4966;48.112;9.282;2022-08-19T01:40:22;94334.97;;;19.16;100.00
9855;BME280;4966;48.112;9.282;2022-08-19T01:42:49;94329.50;;;19.05;100.00
9855;BME280;4966;48.112;9.282;2022-08-19T01:45:16;94326.75;;;19.08;100.00
9855;BME280;4966;48.112;9.282;2022-08-19T01:47:42;94333.47;;;19.00;100.00
9855;BME280;4966;48.112;9.282;2022-08-19T01:50:10;94337.75;;;19.12;100.00
9855;BME280;4966;48.112;9.282;2022-08-19T01:52:37;94330.63;;;19.18;100.00
9855;BME280;4966;48.112;9.282;2022-08-19T01:55:04;94325.03;;;19.29;100.00
9855;BME280;4966;48.112;9.282;2022-08-19T01:57:30;94325.81;;;19.29;100.00
9855;BME280;4966;48.112;9.282;2022-08-19T01:59:56;94332.22;;;19.16;100.00
9855;BME280;4966;48.112;9.282;2022-08-19T02:02:21;94320.81;;;19.10;100.00
9855;BME280;4966;48.112;9.282;2022-08-19T02:04:47;94322.81;;;19.02;100.00
9855;BME280;4966;48.112;9.282;2022-08-19T02:07:13;94314.16;;;19.04;100.00
9855;BME280;4966;48.112;9.282;2022-08-19T02:09:39;94307.44;;;19.05;100.00
9855;BME280;4966;48.112;9.282;2022-08-19T02:12:06;94312.97;;;19.08;100.00
9855;BME280;4966;48.112;9.282;2022-08-19T02:14:34;94316.47;;;19.12;100.00
9855;BME280;4966;48.112;9.282;2022-08-19T02:16:59;94308.56;;;19.15;100.00
9855;BME280;4966;48.112;9.282;2022-08-19T02:19:25;94321.25;;;18.98;100.00
9855;BME280;4966;48.112;9.282;2022-08-19T02:21:50;94320.09;;;18.95;100.00
9855;BME280;4966;48.112;9.282;2022-08-19T02:24:15;94315.34;;;18.96;100.00
9855;BME280;4966;48.112;9.282;2022-08-19T02:26:41;94318.16;;;18.92;100.00
9855;BME280;4966;48.112;9.282;2022-08-19T02:29:06;94308.75;;;18.82;100.00
9855;BME280;4966;48.112;9.282;2022-08-19T02:31:32;94308.75;;;18.82;100.00
9855;BME280;4966;48.112;9.282;2022-08-19T02:33:58;94315.03;;;18.72;100.00
9855;BME280;4966;48.112;9.282;2022-08-19T02:36:24;94307.53;;;18.83;100.00
9855;BME280;4966;48.112;9.282;2022-08-19T02:38:50;94315.84;;;18.76;100.00
9855;BME280;4966;48.112;9.282;2022-08-19T02:41:19;94315.78;;;18.94;100.00
9855;BME280;4966;48.112;9.282;2022-08-19T02:43:45;94307.94;;;18.75;100.00
9855;BME280;4966;48.112;9.282;2022-08-19T02:46:20;94314.63;;;18.74;100.00
9855;BME280;4966;48.112;9.282;2022-08-19T02:48:54;94311.09;;;18.77;100.00
9855;BME280;4966;48.112;9.282;2022-08-19T02:51:46;94305.16;;;18.82;100.00
9855;BME280;4966;48.112;9.282;2022-08-19T02:54:12;94301.63;;;18.81;100.00
9855;BME280;4966;48.112;9.282;2022-08-19T02:56:40;94291.03;;;18.76;100.00
9855;BME280;4966;48.112;9.282;2022-08-19T02:59:06;94291.03;;;18.69;100.00
9855;BME280;4966;48.112;9.282;2022-08-19T03:01:37;94294.69;;;18.37;100.00
9855;BME280;4966;48.112;9.282;2022-08-19T03:04:06;94288.41;;;18.26;100.00
9855;BME280;4966;48.112;9.282;2022-08-19T03:06:35;94306.81;;;18.50;100.00
9855;BME280;4966;48.112;9.282;2022-08-19T03:09:01;94294.63;;;18.52;100.00
9855;BME280;4966;48.112;9.282;2022-08-19T03:11:31;94305.59;;;18.77;100.00
9855;BME280;4966;48.112;9.282;2022-08-19T03:13:58;94301.66;;;18.78;100.00
9855;BME280;4966;48.112;9.282;2022-08-19T03:16:28;94304.78;;;18.83;100.00
9855;BME280;4966;48.112;9.282;2022-08-19T03:18:56;94307.53;;;18.87;100.00
9855;BME280;4966;48.112;9.282;2022-08-19T03:21:26;94309.16;;;18.77;100.00
9855;BME280;4966;48.112;9.282;2022-08-19T03:23:56;94309.91;;;18.74;100.00
9855;BME280;4966;48.112;9.282;2022-08-19T03:26:21;94307.16;;;18.70;100.00
9855;BME280;4966;48.112;9.282;2022-08-19T03:28:46;94308.34;;;18.73;100.00
9855;BME280;4966;48.112;9.282;2022-08-19T03:31:16;94309.13;;;18.74;100.00
9855;BME280;4966;48.112;9.282;2022-08-19T03:33:42;94312.34;;;18.54;100.00
9855;BME280;4966;48.112;9.282;2022-08-19T03:36:13;94315.81;;;18.69;100.00
9855;BME280;4966;48.112;9.282;2022-08-19T03:38:42;94320.56;;;18.58;100.00
9855;BME280;4966;48.112;9.282;2022-08-19T03:41:14;94322.94;;;18.63;100.00
9855;BME280;4966;48.112;9.282;2022-08-19T03:43:41;94321.72;;;18.67;100.00
9855;BME280;4966;48.112;9.282;2022-08-19T03:46:10;94318.97;;;18.71;100.00
9855;BME280;4966;48.112;9.282;2022-08-19T03:48:37;94316.19;;;18.75;100.00
9855;BME280;4966;48.112;9.282;2022-08-19T03:51:04;94309.19;;;18.56;100.00
9855;BME280;4966;48.112;9.282;2022-08-19T03:53:31;94306.06;;;18.54;100.00
9855;BME280;4966;48.112;9.282;2022-08-19T03:55:57;94306.47;;;18.45;100.00
9855;BME280;4966;48.112;9.282;2022-08-19T03:58:25;94308.03;;;18.49;100.00
9855;BME280;4966;48.112;9.282;2022-08-19T04:00:50;94308.84;;;18.28;100.00
9855;BME280;4966;48.112;9.282;2022-08-19T04:03:16;94299.44;;;18.19;100.00
9855;BME280;4966;48.112;9.282;2022-08-19T04:05:44;94297.81;;;18.39;100.00
9855;BME280;4966;48.112;9.282;2022-08-19T04:08:09;94297.84;;;18.32;100.00
9855;BME280;4966;48.112;9.282;2022-08-19T04:10:37;94288.44;;;18.15;100.00
9855;BME280;4966;48.112;9.282;2022-08-19T04:13:04;94289.22;;;18.16;100.00
9855;BME280;4966;48.112;9.282;2022-08-19T04:15:31;94297.44;;;18.26;100.00
9855;BME280;4966;48.112;9.282;2022-08-19T04:18:01;94302.53;;;18.39;100.00
9855;BME280;4966;48.112;9.282;2022-08-19T04:20:26;94303.34;;;18.39;100.00
9855;BME280;4966;48.112;9.282;2022-08-19T04:22:52;94304.06;;;18.54;100.00
9855;BME280;4966;48.112;9.282;2022-08-19T04:25:17;94306.44;;;18.52;100.00
9855;BME280;4966;48.112;9.282;2022-08-19T04:27:42;94322.56;;;18.50;100.00
9855;BME280;4966;48.112;9.282;2022-08-19T04:30:12;94308.81;;;18.43;100.00
9855;BME280;4966;48.112;9.282;2022-08-19T04:32:37;94313.94;;;18.41;100.00
9855;BME280;4966;48.112;9.282;2022-08-19T04:35:03;94301.34;;;18.40;100.00
9855;BME280;4966;48.112;9.282;2022-08-19T04:37:28;94304.13;;;18.22;100.00
9855;BME280;4966;48.112;9.282;2022-08-19T04:39:57;94295.88;;;18.25;100.00
9855;BME280;4966;48.112;9.282;2022-08-19T04:42:41;94301.38;;;18.29;100.00
9855;BME280;4966;48.112;9.282;2022-08-19T04:45:13;94291.13;;;18.33;100.00
9855;BME280;4966;48.112;9.282;2022-08-19T04:47:40;94291.91;;;18.34;100.00
9855;BME280;4966;48.112;9.282;2022-08-19T04:50:07;94298.25;;;18.20;100.00
9855;BME280;4966;48.112;9.282;2022-08-19T04:52:36;94310.44;;;18.30;100.00
9855;BME280;4966;48.112;9.282;2022-08-19T04:55:01;94331.63;;;18.50;99.80
9855;BME280;4966;48.112;9.282;2022-08-19T04:57:27;94338.75;;;18.37;100.00
9855;BME280;4966;48.112;9.282;2022-08-19T04:59:56;94348.97;;;18.37;100.00
9855;BME280;4966;48.112;9.282;2022-08-19T05:02:21;94351.28;;;18.53;100.00
9855;BME280;4966;48.112;9.282;2022-08-19T05:04:51;94353.25;;;18.52;99.79
9855;BME280;4966;48.112;9.282;2022-08-19T05:07:16;94359.16;;;18.61;99.60
9855;BME280;4966;48.112;9.282;2022-08-19T05:09:41;94366.63;;;18.61;100.00
9855;BME280;4966;48.112;9.282;2022-08-19T05:12:07;94362.69;;;18.65;100.00
9855;BME280;4966;48.112;9.282;2022-08-19T05:14:33;94362.28;;;18.63;99.67
9855;BME280;4966;48.112;9.282;2022-08-19T05:17:00;94362.69;;;18.62;100.00
9855;BME280;4966;48.112;9.282;2022-08-19T05:19:25;94367.38;;;18.72;99.34
9855;BME280;4966;48.112;9.282;2022-08-19T05:22:09;94365.03;;;18.60;99.52
9855;BME280;4966;48.112;9.282;2022-08-19T05:24:53;94372.13;;;18.79;99.04
9855;BME280;4966;48.112;9.282;2022-08-19T05:27:19;94363.81;;;18.89;98.61
9855;BME280;4966;48.112;9.282;2022-08-19T05:29:44;94362.63;;;18.90;98.83
9855;BME280;4966;48.112;9.282;2022-08-19T05:32:10;94364.63;;;18.83;98.61
9855;BME280;4966;48.112;9.282;2022-08-19T05:34:36;94369.00;;;18.59;98.79
9855;BME280;4966;48.112;9.282;2022-08-19T05:37:04;94363.84;;;18.79;97.87
9855;BME280;4966;48.112;9.282;2022-08-19T05:39:32;94369.34;;;18.89;98.98
9855;BME280;4966;48.112;9.282;2022-08-19T05:42:03;94372.03;;;19.00;98.52
9855;BME280;4966;48.112;9.282;2022-08-19T05:44:32;94376.38;;;19.01;98.79
9855;BME280;4966;48.112;9.282;2022-08-19T05:46:58;94364.59;;;18.97;96.75
9855;BME280;4966;48.112;9.282;2022-08-19T05:49:25;94368.97;;;18.73;97.28
9855;BME280;4966;48.112;9.282;2022-08-19T05:51:52;94372.84;;;18.97;96.36
9855;BME280;4966;48.112;9.282;2022-08-19T05:54:19;94372.03;;;19.00;97.75
9855;BME280;4966;48.112;9.282;2022-08-19T05:56:45;94372.88;;;18.86;96.08
9855;BME280;4966;48.112;9.282;2022-08-19T05:59:14;94369.69;;;19.06;94.85
9855;BME280;4966;48.112;9.282;2022-08-19T06:01:44;94361.44;;;18.95;95.20
9855;BME280;4966;48.112;9.282;2022-08-19T06:04:10;94362.66;;;18.83;96.33
9855;BME280;4966;48.112;9.282;2022-08-19T06:06:36;94359.13;;;18.65;97.16
9855;BME280;4966;48.112;9.282;2022-08-19T06:09:04;94355.56;;;18.86;97.33
9855;BME280;4966;48.112;9.282;2022-08-19T06:11:59;94362.66;;;18.87;96.67
9855;BME280;4966;48.112;9.282;2022-08-19T06:14:29;94364.19;;;18.99;94.39
9855;BME280;4966;48.112;9.282;2022-08-19T06:16:55;94368.09;;;19.05;94.19
9855;BME280;4966;48.112;9.282;2022-08-19T06:19:21;94363.88;;;18.68;95.76
9855;BME280;4966;48.112;9.282;2022-08-19T06:21:50;94365.44;;;18.62;96.09
9855;BME280;4966;48.112;9.282;2022-08-19T06:24:20;94363.81;;;18.86;95.36
9855;BME280;4966;48.112;9.282;2022-08-19T06:26:48;94351.97;;;18.96;94.99
9855;BME280;4966;48.112;9.282;2022-08-19T06:29:16;94355.59;;;18.64;98.31
9855;BME280;4966;48.112;9.282;2022-08-19T06:31:44;94362.59;;;19.01;95.81
9855;BME280;4966;48.112;9.282;2022-08-19T06:34:10;94361.44;;;18.99;94.40
9855;BME280;4966;48.112;9.282;2022-08-19T06:36:38;94367.38;;;18.65;92.73
9855;BME280;4966;48.112;9.282;2022-08-19T06:39:11;94367.38;;;18.79;92.57
9855;BME280;4966;48.112;9.282;2022-08-19T06:41:43;94364.63;;;18.79;92.72
9855;BME280;4966;48.112;9.282;2022-08-19T06:44:09;94360.22;;;19.03;92.02
9855;BME280;4966;48.112;9.282;2022-08-19T06:46:36;94366.91;;;19.06;92.48
9855;BME280;4966;48.112;9.282;2022-08-19T06:49:02;94360.31;;;18.78;93.91
9855;BME280;4966;48.112;9.282;2022-08-19T06:51:28;94365.38;;;18.90;92.14
9855;BME280;4966;48.112;9.282;2022-08-19T06:53:55;94361.81;;;19.01;91.48
9855;BME280;4966;48.112;9.282;2022-08-19T06:56:26;94372.88;;;18.76;91.98
9855;BME280;4966;48.112;9.282;2022-08-19T06:59:09;94370.19;;;18.54;92.80
9855;BME280;4966;48.112;9.282;2022-08-19T07:01:41;94385.91;;;18.82;92.63
9855;BME280;4966;48.112;9.282;2022-08-19T07:04:08;94374.06;;;18.75;92.22
9855;BME280;4966;48.112;9.282;2022-08-19T07:06:35;94378.00;;;18.88;93.03
9855;BME280;4966;48.112;9.282;2022-08-19T07:09:01;94367.00;;;18.81;94.00
9855;BME280;4966;48.112;9.282;2022-08-19T07:11:27;94369.38;;;18.57;96.10
9855;BME280;4966;48.112;9.282;2022-08-19T07:13:53;94364.25;;;18.77;94.59
9855;BME280;4966;48.112;9.282;2022-08-19T07:16:19;94371.75;;;18.59;94.53
9855;BME280;4966;48.112;9.282;2022-08-19T07:18:47;94378.03;;;18.63;94.64
9855;BME280;4966;48.112;9.282;2022-08-19T07:21:20;94379.22;;;18.65;96.64
9855;BME280;4966;48.112;9.282;2022-08-19T07:23:47;94382.00;;;18.40;96.34
9855;BME280;4966;48.112;9.282;2022-08-19T07:26:23;94377.28;;;18.37;97.09
9855;BME280;4966;48.112;9.282;2022-08-19T07:28:49;94373.75;;;18.51;96.71
9855;BME280;4966;48.112;9.282;2022-08-19T07:31:20;94380.81;;;18.63;96.44
9855;BME280;4966;48.112;9.282;2022-08-19T07:33:47;94378.06;;;18.48;95.83
9855;BME280;4966;48.112;9.282;2022-08-19T07:36:15;94393.03;;;18.51;96.31
9855;BME280;4966;48.112;9.282;2022-08-19T07:38:43;94392.97;;;18.62;97.27
9855;BME280;4966;48.112;9.282;2022-08-19T07:41:11;94390.63;;;18.53;97.36
9855;BME280;4966;48.112;9.282;2022-08-19T07:43:38;94388.31;;;18.19;99.56
9855;BME280;4966;48.112;9.282;2022-08-19T07:46:04;94388.31;;;18.19;100.00
9855;BME280;4966;48.112;9.282;2022-08-19T07:48:29;94392.63;;;18.35;100.00
9855;BME280;4966;48.112;9.282;2022-08-19T07:50:56;94391.44;;;18.43;99.30
9855;BME280;4966;48.112;9.282;2022-08-19T07:53:23;94394.59;;;18.48;99.01
9855;BME280;4966;48.112;9.282;2022-08-19T07:55:50;94393.38;;;18.60;99.51
9855;BME280;4966;48.112;9.282;2022-08-19T07:58:19;94391.00;;;18.62;99.19
9855;BME280;4966;48.112;9.282;2022-08-19T08:00:46;94396.91;;;18.64;97.93
9855;BME280;4966;48.112;9.282;2022-08-19T08:03:13;94385.09;;;18.60;98.68
9855;BME280;4966;48.112;9.282;2022-08-19T08:05:39;94392.63;;;18.38;99.16
9855;BME280;4966;48.112;9.282;2022-08-19T08:08:23;94397.72;;;18.43;98.96
9855;BME280;4966;48.112;9.282;2022-08-19T08:11:00;94391.41;;;18.57;98.18
9855;BME280;4966;48.112;9.282;2022-08-19T08:13:26;94394.97;;;18.36;99.60
9855;BME280;4966;48.112;9.282;2022-08-19T08:15:52;94398.13;;;18.45;100.00
9855;BME280;4966;48.112;9.282;2022-08-19T08:18:18;94406.75;;;18.73;98.54
9855;BME280;4966;48.112;9.282;2022-08-19T08:20:46;94410.31;;;18.59;98.46
9855;BME280;4966;48.112;9.282;2022-08-19T08:23:12;94399.69;;;18.61;99.07
9855;BME280;4966;48.112;9.282;2022-08-19T08:25:56;94411.13;;;18.41;100.00
9855;BME280;4966;48.112;9.282;2022-08-19T08:28:22;94408.72;;;18.58;100.00
9855;BME280;4966;48.112;9.282;2022-08-19T08:30:48;94417.00;;;18.50;100.00
9855;BME280;4966;48.112;9.282;2022-08-19T08:33:25;94417.00;;;18.36;99.65
9855;BME280;4966;48.112;9.282;2022-08-19T08:35:51;94422.50;;;18.36;99.39
9855;BME280;4966;48.112;9.282;2022-08-19T08:38:17;94413.50;;;18.25;100.00
9855;BME280;4966;48.112;9.282;2022-08-19T08:43:27;94417.78;;;18.47;100.00
9855;BME280;4966;48.112;9.282;2022-08-19T08:46:10;94413.47;;;18.43;99.48
9855;BME280;4966;48.112;9.282;2022-08-19T08:51:05;94425.28;;;18.47;99.66
9855;BME280;4966;48.112;9.282;2022-08-19T08:53:34;94424.88;;;18.16;100.00
9855;BME280;4966;48.112;9.282;2022-08-19T08:56:02;94433.91;;;18.02;100.00
9855;BME280;4966;48.112;9.282;2022-08-19T08:58:54;94424.88;;;18.45;100.00
9855;BME280;4966;48.112;9.282;2022-08-19T09:01:22;94427.66;;;18.48;99.64
9855;BME280;4966;48.112;9.282;2022-08-19T09:03:47;94431.97;;;18.39;100.00
9855;BME280;4966;48.112;9.282;2022-08-19T09:06:39;94429.97;;;18.64;98.95
9855;BME280;4966;48.112;9.282;2022-08-19T09:11:59;94431.56;;;18.19;100.00
9855;BME280;4966;48.112;9.282;2022-08-19T09:14:59;94434.72;;;18.14;100.00
9855;BME280;4966;48.112;9.282;2022-08-19T09:17:30;94435.53;;;18.25;100.00
9855;BME280;4966;48.112;9.282;2022-08-19T09:22:41;94437.88;;;18.59;100.00
9855;BME280;4966;48.112;9.282;2022-08-19T09:25:13;94448.09;;;18.51;100.00
9855;BME280;4966;48.112;9.282;2022-08-19T09:27:41;94441.75;;;18.72;99.69
9855;BME280;4966;48.112;9.282;2022-08-19T09:30:08;94447.69;;;18.67;98.89
9855;BME280;4966;48.112;9.282;2022-08-19T09:32:34;94449.69;;;18.56;98.86
9855;BME280;4966;48.112;9.282;2022-08-19T09:34:59;94444.94;;;18.63;100.00
9855;BME280;4966;48.112;9.282;2022-08-19T09:37:26;94443.38;;;18.77;97.86
9855;BME280;4966;48.112;9.282;2022-08-19T09:39:52;94459.91;;;18.59;99.54
9855;BME280;4966;48.112;9.282;2022-08-19T09:42:17;94456.34;;;18.65;100.00
9855;BME280;4966;48.112;9.282;2022-08-19T09:44:43;94451.59;;;18.98;99.48
9855;BME280;4966;48.112;9.282;2022-08-19T09:47:10;94457.13;;;18.66;99.02
9855;BME280;4966;48.112;9.282;2022-08-19T09:49:37;94457.53;;;18.97;99.08
9855;BME280;4966;48.112;9.282;2022-08-19T09:52:05;94460.63;;;19.17;98.86
9855;BME280;4966;48.112;9.282;2022-08-19T09:54:32;94461.44;;;19.06;98.57
9855;BME280;4966;48.112;9.282;2022-08-19T09:56:58;94467.38;;;18.90;99.34
9855;BME280;4966;48.112;9.282;2022-08-19T09:59:25;94472.47;;;18.99;98.02
9855;BME280;4966;48.112;9.282;2022-08-19T10:01:51;94468.94;;;18.88;98.54
9855;BME280;4966;48.112;9.282;2022-08-19T10:04:16;94468.94;;;18.99;99.26
9855;BME280;4966;48.112;9.282;2022-08-19T10:06:42;94466.97;;;18.96;98.09
9855;BME280;4966;48.112;9.282;2022-08-19T10:09:08;94470.09;;;19.08;98.37
9855;BME280;4966;48.112;9.282;2022-08-19T10:11:35;94469.28;;;19.11;98.75
9855;BME280;4966;48.112;9.282;2022-08-19T10:14:03;94481.13;;;18.98;100.00
9855;BME280;4966;48.112;9.282;2022-08-19T10:16:31;94476.00;;;19.07;100.00
9855;BME280;4966;48.112;9.282;2022-08-19T10:18:57;94484.28;;;19.00;100.00
9855;BME280;4966;48.112;9.282;2022-08-19T10:21:26;94482.69;;;19.09;99.46
9855;BME280;4966;48.112;9.282;2022-08-19T10:23:54;94475.16;;;19.28;97.67
9855;BME280;4966;48.112;9.282;2022-08-19T10:26:25;94479.94;;;19.13;97.58
9855;BME280;4966;48.112;9.282;2022-08-19T10:28:52;94487.75;;;19.29;96.82
9855;BME280;4966;48.112;9.282;2022-08-19T10:31:22;94486.66;;;18.94;98.57
9855;BME280;4966;48.112;9.282;2022-08-19T10:33:49;94493.72;;;19.09;97.49
9855;BME280;4966;48.112;9.282;2022-08-19T10:36:17;94491.72;;;19.28;97.20
9855;BME280;4966;48.112;9.282;2022-08-19T10:38:44;94497.25;;;19.10;98.96
9855;BME280;4966;48.112;9.282;2022-08-19T10:41:15;94505.94;;;18.90;99.31
9855;BME280;4966;48.112;9.282;2022-08-19T10:43:41;94508.31;;;18.81;100.00
9855;BME280;4966;48.112;9.282;2022-08-19T10:46:09;94500.78;;;19.14;98.43
9855;BME280;4966;48.112;9.282;2022-08-19T10:48:36;94503.53;;;19.10;98.47
9855;BME280;4966;48.112;9.282;2022-08-19T10:51:02;94504.69;;;19.27;97.91
9855;BME280;4966;48.112;9.282;2022-08-19T10:53:46;94511.75;;;19.43;97.27
9855;BME280;4966;48.112;9.282;2022-08-19T10:56:12;94512.94;;;19.38;98.70
9855;BME280;4966;48.112;9.282;2022-08-19T10:58:56;94513.72;;;19.39;98.25
9855;BME280;4966;48.112;9.282;2022-08-19T11:01:23;94518.47;;;19.34;99.88
9855;BME280;4966;48.112;9.282;2022-08-19T11:03:49;94516.53;;;19.24;100.00
9855;BME280;4966;48.112;9.282;2022-08-19T11:06:15;94520.84;;;19.32;100.00
9855;BME280;4966;48.112;9.282;2022-08-19T11:08:40;94507.81;;;19.40;100.00
9855;BME280;4966;48.112;9.282;2022-08-19T11:11:07;94525.94;;;19.34;100.00
9855;BME280;4966;48.112;9.282;2022-08-19T11:13:35;94516.53;;;19.24;100.00
9855;BME280;4966;48.112;9.282;2022-08-19T11:16:09;94516.94;;;19.19;100.00
9855;BME280;4966;48.112;9.282;2022-08-19T11:18:39;94507.06;;;19.32;100.00
9855;BME280;4966;48.112;9.282;2022-08-19T11:21:17;94515.69;;;19.34;100.00
9855;BME280;4966;48.112;9.282;2022-08-19T11:23:45;94523.69;;;18.97;100.00
9855;BME280;4966;48.112;9.282;2022-08-19T11:26:12;94520.94;;;18.89;100.00
9855;BME280;4966;48.112;9.282;2022-08-19T11:28:38;94509.88;;;18.75;100.00
9855;BME280;4966;48.112;9.282;2022-08-19T11:31:04;94519.72;;;19.05;100.00
9855;BME280;4966;48.112;9.282;2022-08-19T11:33:34;94509.44;;;19.23;100.00
9855;BME280;4966;48.112;9.282;2022-08-19T11:35:59;94507.41;;;19.42;99.68
9855;BME280;4966;48.112;9.282;2022-08-19T11:38:26;94503.50;;;19.36;100.00
9855;BME280;4966;48.112;9.282;2022-08-19T11:41:00;94512.66;;;18.82;100.00
9855;BME280;4966;48.112;9.282;2022-08-19T11:43:27;94507.09;;;19.18;100.00
9855;BME280;4966;48.112;9.282;2022-08-19T11:45:54;94516.56;;;19.03;100.00
9855;BME280;4966;48.112;9.282;2022-08-19T11:48:21;94507.06;;;19.29;100.00
9855;BME280;4966;48.112;9.282;2022-08-19T11:50:48;94511.44;;;19.23;100.00
9855;BME280;4966;48.112;9.282;2022-08-19T11:53:13;94505.94;;;18.90;100.00
9855;BME280;4966;48.112;9.282;2022-08-19T11:55:39;94503.16;;;19.23;100.00
9855;BME280;4966;48.112;9.282;2022-08-19T11:58:05;94508.28;;;19.13;100.00
9855;BME280;4966;48.112;9.282;2022-08-19T12:00:32;94495.28;;;19.14;98.28
9855;BME280;4966;48.112;9.282;2022-08-19T12:03:00;94511.47;;;19.01;100.00
9855;BME280;4966;48.112;9.282;2022-08-19T12:05:25;94498.47;;;18.52;100.00
9855;BME280;4966;48.112;9.282;2022-08-19T12:07:51;94500.81;;;18.64;100.00
9855;BME280;4966;48.112;9.282;2022-08-19T12:10:16;94510.63;;;18.36;100.00
9855;BME280;4966;48.112;9.282;2022-08-19T12:12:42;94506.31;;;18.60;100.00
9855;BME280;4966;48.112;9.282;2022-08-19T12:15:11;94508.28;;;18.67;100.00
9855;BME280;4966;48.112;9.282;2022-08-19T12:17:38;94511.06;;;18.67;100.00
9855;BME280;4966;48.112;9.282;2022-08-19T12:20:04;94515.38;;;18.50;100.00
9855;BME280;4966;48.112;9.282;2022-08-19T12:22:30;94522.06;;;18.38;100.00
9855;BME280;4966;48.112;9.282;2022-08-19T12:24:56;94518.91;;;18.43;97.95
9855;BME280;4966;48.112;9.282;2022-08-19T12:27:21;94520.88;;;18.25;99.74
9855;BME280;4966;48.112;9.282;2022-08-19T12:29:47;94520.09;;;18.28;99.68
9855;BME280;4966;48.112;9.282;2022-08-19T12:32:12;94511.41;;;18.26;97.83
9855;BME280;4966;48.112;9.282;2022-08-19T12:34:38;94526.38;;;18.36;98.97
9855;BME280;4966;48.112;9.282;2022-08-19T12:37:05;94527.53;;;18.24;99.01
9855;BME280;4966;48.112;9.282;2022-08-19T12:39:36;94528.34;;;18.24;99.26
9855;BME280;4966;48.112;9.282;2022-08-19T12:42:04;94526.00;;;18.37;97.99
9855;BME280;4966;48.112;9.282;2022-08-19T12:44:29;94531.47;;;18.26;97.77
9855;BME280;4966;48.112;9.282;2022-08-19T12:46:56;94524.03;;;18.34;99.14
9855;BME280;4966;48.112;9.282;2022-08-19T12:49:22;94525.22;;;18.37;98.47
9855;BME280;4966;48.112;9.282;2022-08-19T12:51:47;94528.31;;;18.10;99.53
9855;BME280;4966;48.112;9.282;2022-08-19T12:54:12;94533.88;;;18.53;98.07
9855;BME280;4966;48.112;9.282;2022-08-19T12:56:38;94525.56;;;18.21;98.44
9855;BME280;4966;48.112;9.282;2022-08-19T12:59:04;94540.19;;;18.46;98.04
9855;BME280;4966;48.112;9.282;2022-08-19T13:01:30;94542.88;;;18.28;99.27
9855;BME280;4966;48.112;9.282;2022-08-19T13:03:58;94542.09;;;18.28;99.68
9855;BME280;4966;48.112;9.282;2022-08-19T13:06:24;94550.81;;;18.52;98.85
9855;BME280;4966;48.112;9.282;2022-08-19T13:08:50;94555.13;;;18.49;97.41
9855;BME280;4966;48.112;9.282;2022-08-19T13:11:18;94543.72;;;18.47;97.95
9855;BME280;4966;48.112;9.282;2022-08-19T13:13:46;94553.16;;;18.42;98.29
9855;BME280;4966;48.112;9.282;2022-08-19T13:16:13;94547.22;;;18.33;100.00
9855;BME280;4966;48.112;9.282;2022-08-19T13:18:40;94559.03;;;18.41;100.00
9855;BME280;4966;48.112;9.282;2022-08-19T13:21:08;94552.75;;;18.37;99.20
9855;BME280;4966;48.112;9.282;2022-08-19T13:23:35;94549.59;;;18.35;99.51
9855;BME280;4966;48.112;9.282;2022-08-19T13:26:05;94550.41;;;18.42;99.07
9855;BME280;4966;48.112;9.282;2022-08-19T13:28:32;94555.53;;;18.55;98.66
9855;BME280;4966;48.112;9.282;2022-08-19T13:31:22;94552.78;;;18.51;99.86
9855;BME280;4966;48.112;9.282;2022-08-19T13:34:06;94560.69;;;18.78;98.90